createdAt,value
2018-02-03T00:00:31.648Z,10.70
2018-02-03T00:02:59.311Z,11.10
2018-02-03T00:05:27.555Z,9.18
2018-02-03T00:07:55.816Z,10.15
2018-02-03T00:10:23.653Z,9.50
2018-02-03T00:12:51.091Z,9.45
2018-02-03T00:15:18.730Z,10.93
2018-02-03T00:17:46.540Z,10.93
2018-02-03T00:20:14.204Z,10.20
2018-02-03T00:22:42.506Z,10.05
2018-02-03T00:25:10.248Z,10.50
2018-02-03T00:27:37.708Z,11.02
2018-02-03T00:30:06.880Z,11.98
2018-02-03T00:32:35.065Z,12.02
2018-02-03T00:35:03.220Z,12.40
2018-02-03T00:37:30.662Z,10.88
2018-02-03T00:39:58.123Z,11.23
2018-02-03T00:42:25.763Z,11.75
2018-02-03T00:44:53.560Z,11.70
2018-02-03T00:47:21.311Z,10.65
2018-02-03T00:49:49.549Z,11.82
2018-02-03T00:52:16.984Z,11.63
2018-02-03T00:54:45.142Z,10.75
2018-02-03T00:57:12.890Z,11.25
2018-02-03T00:59:40.767Z,11.32
2018-02-03T01:02:09.058Z,10.50
2018-02-03T01:04:36.511Z,11.55
2018-02-03T01:07:04.761Z,9.98
2018-02-03T01:09:32.265Z,10.57
2018-02-03T01:12:00.108Z,9.90
2018-02-03T01:14:27.889Z,8.95
2018-02-03T01:16:55.338Z,9.48
2018-02-03T01:19:26.194Z,9.65
2018-02-03T01:21:54.052Z,9.60
2018-02-03T01:24:21.843Z,9.20
2018-02-03T01:26:49.282Z,8.30
2018-02-03T01:29:18.589Z,8.82
2018-02-03T01:31:46.067Z,9.65
2018-02-03T01:34:14.408Z,8.65
2018-02-03T01:36:41.830Z,8.57
2018-02-03T01:39:09.508Z,9.05
2018-02-03T01:41:36.966Z,8.52
2018-02-03T01:44:04.654Z,8.25
2018-02-03T01:46:32.459Z,8.50
2018-02-03T01:49:00.253Z,9.00
2018-02-03T01:51:28.363Z,9.20
2018-02-03T01:53:56.567Z,7.95
2018-02-03T01:56:24.397Z,8.55
2018-02-03T01:58:53.470Z,8.45
2018-02-03T02:01:21.572Z,9.55
2018-02-03T02:03:49.206Z,8.32
2018-02-03T02:06:17.010Z,10.85
2018-02-03T02:08:45.236Z,10.35
2018-02-03T02:11:12.907Z,11.07
2018-02-03T02:13:40.366Z,12.88
2018-02-03T02:16:08.023Z,11.32
2018-02-03T02:18:35.467Z,11.55
2018-02-03T02:21:02.898Z,12.40
2018-02-03T02:23:30.360Z,11.63
2018-02-03T02:25:58.002Z,12.20
2018-02-03T02:28:25.646Z,11.55
2018-02-03T02:30:53.315Z,10.07
2018-02-03T02:33:20.756Z,12.07
2018-02-03T02:35:48.548Z,11.30
2018-02-03T02:38:16.207Z,12.52
2018-02-03T02:40:43.644Z,12.40
2018-02-03T02:43:11.279Z,12.23
2018-02-03T02:45:38.758Z,10.88
2018-02-03T02:48:06.196Z,11.23
2018-02-03T02:50:33.842Z,10.05
2018-02-03T02:53:01.292Z,10.57
2018-02-03T02:55:29.142Z,10.60
2018-02-03T02:57:56.583Z,10.98
2018-02-03T03:00:24.041Z,12.05
2018-02-03T03:02:51.487Z,12.25
2018-02-03T03:05:19.131Z,11.52
2018-02-03T03:07:46.594Z,11.18
2018-02-03T03:10:14.042Z,12.48
2018-02-03T03:12:41.696Z,10.95
2018-02-03T03:15:09.364Z,12.25
2018-02-03T03:17:37.614Z,12.15
2018-02-03T03:20:05.847Z,11.48
2018-02-03T03:22:33.311Z,12.20
2018-02-03T03:25:00.768Z,11.40
2018-02-03T03:27:28.581Z,11.00
2018-02-03T03:29:56.243Z,11.23
2018-02-03T03:32:24.390Z,11.15
2018-02-03T03:34:51.842Z,11.20
2018-02-03T03:37:19.295Z,11.60
2018-02-03T03:39:47.078Z,10.93
2018-02-03T03:42:14.542Z,10.75
2018-02-03T03:44:41.978Z,11.93
2018-02-03T03:47:09.463Z,11.23
2018-02-03T03:49:37.123Z,11.02
2018-02-03T03:52:04.779Z,10.48
2018-02-03T03:54:32.423Z,10.88
2018-02-03T03:57:00.232Z,11.77
2018-02-03T03:59:27.882Z,11.23
2018-02-03T04:01:55.543Z,10.98
2018-02-03T04:04:23.007Z,11.98
2018-02-03T04:06:50.666Z,11.77
2018-02-03T04:09:18.114Z,12.10
2018-02-03T04:11:45.570Z,10.68
2018-02-03T04:14:13.464Z,11.40
2018-02-03T04:16:41.103Z,12.10
2018-02-03T04:19:08.547Z,11.45
2018-02-03T04:21:35.983Z,11.77
2018-02-03T04:24:03.419Z,11.65
2018-02-03T04:26:30.891Z,11.55
2018-02-03T04:28:58.706Z,11.57
2018-02-03T04:31:26.159Z,10.45
2018-02-03T04:33:53.610Z,11.35
2018-02-03T04:36:21.072Z,11.32
2018-02-03T04:38:48.707Z,11.73
2018-02-03T04:41:16.147Z,10.75
2018-02-03T04:43:43.591Z,11.63
2018-02-03T04:46:11.037Z,11.12
2018-02-03T04:48:38.830Z,11.57
2018-02-03T04:51:06.470Z,11.65
2018-02-03T04:53:33.931Z,12.35
2018-02-03T04:56:01.730Z,11.85
2018-02-03T04:58:29.184Z,11.57
2018-02-03T05:00:56.822Z,11.18
2018-02-03T05:03:24.486Z,11.48
2018-02-03T05:05:52.134Z,12.25
2018-02-03T05:08:19.587Z,11.73
2018-02-03T05:10:47.247Z,11.77
2018-02-03T05:13:14.707Z,11.23
2018-02-03T05:15:42.566Z,12.75
2018-02-03T05:18:10.430Z,12.82
2018-02-03T05:20:38.326Z,12.23
2018-02-03T05:23:05.754Z,11.20
2018-02-03T05:25:33.219Z,12.55
2018-02-03T05:28:00.650Z,12.95
2018-02-03T05:30:28.290Z,13.15
2018-02-03T05:32:55.962Z,12.90
2018-02-03T05:35:23.780Z,14.80
2018-02-03T05:37:51.215Z,14.87
2018-02-03T05:40:18.667Z,14.27
2018-02-03T05:42:46.299Z,13.55
2018-02-03T05:45:15.474Z,14.10
2018-02-03T05:47:43.137Z,13.25
2018-02-03T05:50:10.575Z,14.07
2018-02-03T05:52:38.018Z,14.20
2018-02-03T05:55:05.479Z,13.32
2018-02-03T05:57:33.110Z,13.52
2018-02-03T06:00:00.551Z,13.60
2018-02-03T06:02:27.986Z,14.23
2018-02-03T06:04:55.830Z,13.57
2018-02-03T06:07:23.268Z,14.43
2018-02-03T06:09:50.699Z,13.75
2018-02-03T06:12:18.148Z,13.73
2018-02-03T06:14:45.794Z,13.77
2018-02-03T06:17:13.243Z,14.43
2018-02-03T06:19:40.686Z,12.85
2018-02-03T06:22:08.331Z,14.15
2018-02-03T06:24:35.788Z,14.95
2018-02-03T06:27:03.245Z,13.85
2018-02-03T06:29:30.675Z,14.05
2018-02-03T06:31:58.443Z,12.95
2018-02-03T06:34:26.223Z,16.12
2018-02-03T06:36:53.896Z,15.50
2018-02-03T06:39:21.354Z,13.98
2018-02-03T06:41:49.007Z,14.70
2018-02-03T06:44:16.454Z,14.38
2018-02-03T06:46:44.239Z,13.32
2018-02-03T06:49:11.684Z,14.43
2018-02-03T06:51:39.491Z,15.18
2018-02-03T06:54:06.961Z,15.73
2018-02-03T06:56:34.678Z,14.98
2018-02-03T06:59:02.119Z,16.55
2018-02-03T07:01:29.758Z,14.20
2018-02-03T07:03:57.539Z,15.25
2018-02-03T07:06:25.019Z,13.30
2018-02-03T07:08:52.466Z,14.55
2018-02-03T07:11:20.245Z,12.43
2018-02-03T07:13:48.018Z,13.18
2018-02-03T07:16:16.241Z,13.40
2018-02-03T07:18:44.031Z,12.13
2018-02-03T07:21:11.680Z,12.70
2018-02-03T07:23:39.527Z,13.13
2018-02-03T07:26:06.991Z,14.13
2018-02-03T07:28:35.380Z,14.48
2018-02-03T07:31:04.382Z,14.27
2018-02-03T07:33:31.836Z,13.62
2018-02-03T07:36:02.656Z,14.35
2018-02-03T07:38:30.937Z,14.70
2018-02-03T07:40:58.591Z,14.15
2018-02-03T07:43:26.023Z,12.13
2018-02-03T07:45:53.487Z,13.88
2018-02-03T07:48:21.811Z,13.62
2018-02-03T07:50:49.578Z,13.80
2018-02-03T07:53:17.239Z,12.70
2018-02-03T07:55:44.923Z,11.30
2018-02-03T07:58:12.390Z,12.02
2018-02-03T08:00:39.834Z,11.52
2018-02-03T08:03:07.290Z,12.07
2018-02-03T08:05:34.927Z,10.95
2018-02-03T08:08:02.387Z,11.65
2018-02-03T08:10:30.270Z,10.07
2018-02-03T08:12:58.444Z,12.50
2018-02-03T08:15:25.913Z,11.77
2018-02-03T08:17:53.630Z,11.63
2018-02-03T08:20:21.078Z,10.73
2018-02-03T08:22:48.818Z,10.10
2018-02-03T08:25:16.250Z,11.12
2018-02-03T08:27:45.327Z,11.70
2018-02-03T08:30:12.979Z,10.32
2018-02-03T08:32:41.271Z,11.80
2018-02-03T08:35:08.715Z,12.63
2018-02-03T08:37:37.892Z,11.45
2018-02-03T08:40:05.311Z,11.20
2018-02-03T08:42:32.775Z,10.15
2018-02-03T08:45:00.438Z,10.43
2018-02-03T08:47:27.867Z,11.18
2018-02-03T08:49:55.520Z,11.90
2018-02-03T08:52:22.996Z,10.50
2018-02-03T08:54:50.821Z,11.48
2018-02-03T08:57:18.259Z,11.45
2018-02-03T08:59:45.733Z,10.77
2018-02-03T09:02:14.918Z,11.25
2018-02-03T09:04:43.202Z,11.35
2018-02-03T09:07:11.494Z,11.38
2018-02-03T09:09:39.704Z,11.23
2018-02-03T09:12:07.931Z,11.63
2018-02-03T09:14:35.586Z,12.37
2018-02-03T09:17:03.235Z,11.85
2018-02-03T09:19:32.243Z,10.88
2018-02-03T09:21:59.907Z,11.52
2018-02-03T09:24:27.350Z,10.88
2018-02-03T09:26:55.491Z,12.25
2018-02-03T09:29:23.743Z,10.85
2018-02-03T09:31:52.084Z,11.70
2018-02-03T09:36:53.437Z,11.93
2018-02-03T09:39:22.503Z,12.32
2018-02-03T09:41:50.411Z,12.75
2018-02-03T09:44:21.206Z,12.30
2018-02-03T09:46:49.548Z,13.10
2018-02-03T09:49:17.675Z,12.23
2018-02-03T09:51:46.008Z,12.20
2018-02-03T09:54:13.825Z,12.48
2018-02-03T09:56:42.929Z,12.75
2018-02-03T10:01:41.982Z,11.80
2018-02-03T10:04:10.133Z,14.23
2018-02-03T10:06:38.404Z,12.37
2018-02-03T10:09:09.180Z,12.55
2018-02-03T10:11:38.331Z,12.35
2018-02-03T10:16:37.447Z,12.30
2018-02-03T10:19:06.771Z,12.75
2018-02-03T10:21:35.922Z,12.10
2018-02-03T10:24:04.226Z,12.13
2018-02-03T10:31:39.964Z,12.85
2018-02-03T10:36:39.857Z,11.55
2018-02-03T10:39:08.217Z,10.93
2018-02-03T10:41:35.658Z,11.05
2018-02-03T10:44:06.630Z,10.52
2018-02-03T10:46:34.855Z,13.13
2018-02-03T10:51:35.746Z,11.70
2018-02-03T11:09:17.303Z,11.32
2018-02-03T11:16:52.219Z,10.20
2018-02-03T11:21:52.091Z,10.43
2018-02-03T11:29:25.688Z,10.77
2018-02-03T11:36:58.256Z,10.75
2018-02-03T11:44:30.166Z,9.68
2018-02-03T11:47:01.235Z,8.50
2018-02-03T11:49:29.205Z,8.77
2018-02-03T11:54:28.842Z,10.07
2018-02-03T12:01:59.919Z,8.45
2018-02-03T12:04:27.587Z,8.05
2018-02-03T12:09:28.090Z,7.60
2018-02-03T12:19:30.471Z,10.18
2018-02-03T12:21:58.078Z,10.23
2018-02-03T12:24:25.812Z,10.88
2018-02-03T12:26:53.607Z,12.30
2018-02-03T12:31:52.906Z,12.65
2018-02-03T12:34:23.768Z,12.37
2018-02-03T12:39:27.355Z,13.20
2018-02-03T12:41:55.139Z,15.48
2018-02-03T12:51:59.330Z,13.27
2018-02-03T12:54:27.499Z,14.57
2018-02-03T12:56:54.948Z,13.13
2018-02-03T12:59:23.279Z,13.07
2018-02-03T13:06:57.542Z,13.27
2018-02-03T13:09:26.795Z,13.85
2018-02-03T13:11:54.598Z,12.45
2018-02-03T13:14:22.055Z,13.90
2018-02-03T13:16:49.739Z,12.57
2018-02-03T13:21:49.939Z,13.35
2018-02-03T13:24:17.401Z,13.38
2018-02-03T13:26:45.642Z,12.80
2018-02-03T13:29:13.312Z,12.63
2018-02-03T13:31:41.647Z,12.60
2018-02-03T13:36:41.643Z,10.73
2018-02-03T13:39:09.299Z,12.85
2018-02-03T13:41:38.404Z,13.43
2018-02-03T13:44:06.608Z,12.60
2018-02-03T13:46:34.287Z,12.30
2018-02-03T13:51:33.807Z,13.82
2018-02-03T13:56:34.555Z,13.93
2018-02-03T14:16:46.919Z,12.18
2018-02-03T14:19:15.178Z,12.35
2018-02-03T14:21:44.276Z,11.18
2018-02-03T14:24:22.387Z,11.90
2018-02-03T14:26:50.656Z,12.27
2018-02-03T14:29:18.647Z,13.18
2018-02-03T14:36:50.562Z,13.35
2018-02-03T15:04:47.235Z,10.80
2018-02-03T15:12:20.262Z,13.10
2018-02-03T15:14:48.006Z,13.20
2018-02-03T15:19:47.468Z,13.32
2018-02-03T15:24:47.921Z,14.35
2018-02-03T15:27:15.724Z,14.35
2018-02-03T15:29:43.157Z,14.87
2018-02-03T15:32:10.992Z,15.38
2018-02-03T15:34:38.692Z,13.30
2018-02-03T15:37:06.344Z,14.07
2018-02-03T15:39:34.641Z,14.15
2018-02-03T15:42:02.066Z,12.80
2018-02-03T15:44:29.499Z,13.32
2018-02-03T15:46:56.959Z,13.57
2018-02-03T15:49:24.419Z,12.85
2018-02-03T15:51:51.851Z,11.57
2018-02-03T15:54:19.303Z,11.98
2018-02-03T15:56:46.726Z,12.15
2018-02-03T15:59:14.158Z,12.50
2018-02-03T16:01:41.611Z,12.90
2018-02-03T16:04:09.063Z,12.63
2018-02-03T16:06:36.498Z,12.75
2018-02-03T16:09:03.955Z,13.73
2018-02-03T16:11:31.410Z,13.00
2018-02-03T16:13:58.849Z,14.02
2018-02-03T16:16:26.318Z,15.30
2018-02-03T16:18:53.750Z,15.02
2018-02-03T16:21:21.198Z,14.95
2018-02-03T16:23:48.662Z,14.00
2018-02-03T16:26:16.098Z,13.30
2018-02-03T16:28:43.546Z,11.95
2018-02-03T16:31:10.986Z,12.52
2018-02-03T16:33:38.426Z,12.93
2018-02-03T16:36:06.110Z,13.25
2018-02-03T16:38:33.894Z,12.43
2018-02-03T16:41:01.338Z,11.93
2018-02-03T16:43:28.794Z,14.00
2018-02-03T16:45:56.255Z,12.77
2018-02-03T16:48:23.707Z,13.60
2018-02-03T16:50:51.143Z,13.98
2018-02-03T16:53:20.333Z,11.68
2018-02-03T16:55:48.200Z,12.93
2018-02-03T16:58:16.056Z,13.23
2018-02-03T17:00:43.506Z,13.13
2018-02-03T17:03:11.674Z,13.35
2018-02-03T17:05:39.111Z,12.80
2018-02-03T17:08:06.911Z,15.38
2018-02-03T17:13:06.645Z,15.77
2018-02-03T17:20:38.105Z,14.90
2018-02-03T17:23:06.412Z,18.65
2018-02-03T17:28:06.628Z,15.70
2018-02-03T17:35:37.437Z,15.20
2018-02-03T17:45:53.883Z,16.05
2018-02-03T17:48:25.602Z,15.38
2018-02-03T17:56:03.461Z,16.40
2018-02-03T17:58:31.868Z,15.98
2018-02-03T18:01:00.056Z,16.60
2018-02-03T18:08:34.144Z,14.70
2018-02-03T18:11:05.556Z,14.10
2018-02-03T18:13:33.735Z,15.23
2018-02-03T18:16:04.559Z,15.25
2018-02-03T18:18:33.662Z,15.90
2018-02-03T18:23:33.596Z,14.45
2018-02-03T18:28:34.866Z,13.80
2018-02-03T18:33:37.350Z,14.75
2018-02-03T18:36:06.564Z,16.05
2018-02-03T18:38:34.786Z,16.20
2018-02-03T18:41:05.665Z,14.98
2018-02-03T18:43:33.448Z,15.88
2018-02-03T18:46:04.381Z,15.63
2018-02-03T18:48:35.279Z,16.10
2018-02-03T18:51:03.555Z,15.18
2018-02-03T18:53:32.611Z,14.05
2018-02-03T18:56:00.707Z,15.52
2018-02-03T18:58:29.050Z,14.20
2018-02-03T19:00:59.984Z,14.23
2018-02-03T19:03:30.821Z,13.95
2018-02-03T19:05:59.919Z,14.25
2018-02-03T19:11:00.383Z,14.65
2018-02-03T19:16:00.181Z,15.57
2018-02-03T19:18:29.174Z,15.48
2018-02-03T19:23:28.439Z,14.95
2018-02-03T19:25:56.095Z,14.45
2018-02-03T19:28:23.753Z,15.00
2018-02-03T19:30:51.255Z,15.43
2018-02-03T19:33:19.586Z,14.30
2018-02-03T19:35:50.419Z,14.93
2018-02-03T19:38:19.587Z,14.75
2018-02-03T19:40:48.692Z,15.18
2018-02-03T19:43:16.971Z,15.85
2018-02-03T19:45:45.212Z,15.50
2018-02-03T19:48:13.533Z,14.65
2018-02-03T19:50:42.731Z,14.90
2018-02-03T19:53:10.513Z,14.27
2018-02-03T19:55:39.599Z,13.95
2018-02-03T19:58:08.675Z,14.20
2018-02-03T20:03:08.613Z,13.20
2018-02-03T20:05:36.411Z,13.85
2018-02-03T20:08:05.591Z,13.62
2018-02-03T20:13:04.904Z,13.70
2018-02-03T20:15:32.796Z,12.73
2018-02-03T20:18:01.842Z,13.55
2018-02-03T20:20:32.712Z,12.90
2018-02-03T20:23:00.995Z,14.23
2018-02-03T20:25:28.821Z,14.57
2018-02-03T20:27:57.099Z,14.75
2018-02-03T20:38:02.247Z,14.00
2018-02-03T20:45:34.695Z,16.17
2018-02-03T20:48:02.463Z,14.80
2018-02-03T20:50:31.533Z,15.65
2018-02-03T20:53:00.562Z,13.55
2018-02-03T20:55:28.334Z,14.50
2018-02-03T20:57:55.966Z,14.68
2018-02-03T21:00:24.220Z,15.05
2018-02-03T21:02:52.438Z,16.02
2018-02-03T21:05:20.560Z,15.48
2018-02-03T21:07:47.991Z,14.55
2018-02-03T21:10:18.910Z,15.27
2018-02-03T21:12:47.094Z,16.80
2018-02-03T21:15:16.137Z,16.55
2018-02-03T21:20:18.852Z,16.50
2018-02-03T21:22:46.347Z,16.70
2018-02-03T21:25:14.547Z,16.25
2018-02-03T21:27:43.683Z,15.38
2018-02-03T21:30:12.952Z,15.23
2018-02-03T21:32:41.186Z,14.50
2018-02-03T21:35:10.328Z,15.75
2018-02-03T21:37:38.606Z,15.20
2018-02-03T21:40:06.827Z,15.10
2018-02-03T21:42:35.871Z,17.08
2018-02-03T21:45:04.071Z,14.80
2018-02-03T21:47:31.758Z,14.98
2018-02-03T21:55:03.271Z,14.25
2018-02-03T21:57:30.800Z,14.10
2018-02-03T21:59:58.599Z,14.20
2018-02-03T22:04:57.920Z,15.65
2018-02-03T22:07:25.744Z,15.27
2018-02-03T22:09:54.855Z,14.05
2018-02-03T22:12:23.148Z,14.43
2018-02-03T22:14:51.395Z,15.25
2018-02-03T22:17:20.592Z,14.60
2018-02-03T22:19:48.230Z,14.15
2018-02-03T22:22:16.017Z,14.55
2018-02-03T22:24:45.144Z,14.82
2018-02-03T22:27:13.378Z,15.82
2018-02-03T22:29:41.243Z,15.05
2018-02-03T22:32:09.030Z,14.50
2018-02-03T22:34:36.815Z,15.60
2018-02-03T22:37:03.570Z,15.82
2018-02-03T22:39:31.238Z,15.70
2018-02-03T22:41:58.678Z,14.90
2018-02-03T22:44:26.860Z,14.77
2018-02-03T22:46:54.317Z,14.70
2018-02-03T22:49:22.552Z,15.57
2018-02-03T22:51:50.748Z,16.65
2018-02-03T22:54:18.402Z,15.90
2018-02-03T22:56:45.842Z,16.60
2018-02-03T22:59:13.298Z,16.73
2018-02-03T23:04:13.042Z,16.48
2018-02-03T23:06:41.215Z,16.85
2018-02-03T23:09:09.172Z,17.33
2018-02-03T23:11:37.046Z,17.35
2018-02-03T23:14:04.511Z,17.87
2018-02-03T23:16:32.178Z,17.10
2018-02-03T23:18:59.822Z,17.92
2018-02-03T23:21:27.519Z,19.05
2018-02-03T23:23:55.626Z,17.83
2018-02-03T23:26:24.630Z,18.02
2018-02-03T23:31:25.275Z,17.02
2018-02-03T23:33:53.569Z,17.25
2018-02-03T23:36:21.875Z,17.80
2018-02-03T23:38:49.687Z,17.67
2018-02-03T23:41:17.455Z,19.33
2018-02-03T23:43:44.903Z,18.55
2018-02-03T23:46:12.610Z,16.87
2018-02-03T23:48:40.249Z,16.87
2018-02-03T23:51:07.719Z,16.80
2018-02-03T23:53:35.186Z,17.62
2018-02-03T23:56:03.399Z,16.98
2018-02-03T23:58:31.064Z,17.62
